createdAt,value
2022-08-07T00:00:29.966Z,102978.38
2022-08-07T00:02:57.068Z,102975.00
2022-08-07T00:05:24.983Z,102970.69
2022-08-07T00:07:59.810Z,102973.31
2022-08-07T00:10:31.073Z,102969.91
2022-08-07T00:13:09.745Z,102955.22
2022-08-07T00:15:52.178Z,102958.78
2022-08-07T00:18:24.609Z,102958.00
2022-08-07T00:20:57.399Z,102954.66
2022-08-07T00:23:28.570Z,102956.53
2022-08-07T00:26:01.602Z,102963.63
2022-08-07T00:28:34.066Z,102943.72
2022-08-07T00:31:12.244Z,102956.75
2022-08-07T00:33:41.015Z,102957.59
2022-08-07T00:36:08.919Z,102957.63
2022-08-07T00:38:39.007Z,102962.94
2022-08-07T00:41:09.981Z,102963.81
2022-08-07T00:44:02.024Z,102956.91
2022-08-07T00:46:28.393Z,102957.81
2022-08-07T00:48:55.276Z,102959.53
2022-08-07T00:51:22.205Z,102956.81
2022-08-07T00:53:55.299Z,102964.66
2022-08-07T00:56:30.328Z,102940.41
2022-08-07T00:58:57.745Z,102965.41
2022-08-07T01:01:24.892Z,102948.84
2022-08-07T01:03:55.830Z,102947.13
2022-08-07T01:06:28.681Z,102953.38
2022-08-07T01:09:00.579Z,102948.31
2022-08-07T01:12:10.211Z,102962.16
2022-08-07T01:14:17.407Z,102955.25
2022-08-07T01:16:49.223Z,102953.75
2022-08-07T01:19:18.814Z,102955.66
2022-08-07T01:21:48.312Z,102955.84
2022-08-07T01:24:21.485Z,102946.41
2022-08-07T01:26:52.110Z,102944.69
2022-08-07T01:29:22.688Z,102958.69
2022-08-07T01:31:50.917Z,102937.09
2022-08-07T01:34:18.804Z,102946.66
2022-08-07T01:36:52.620Z,102948.47
2022-08-07T01:39:39.660Z,102938.97
2022-08-07T01:42:38.210Z,102948.63
2022-08-07T01:44:54.785Z,102941.75
2022-08-07T01:48:17.678Z,102932.31
2022-08-07T01:50:09.824Z,102938.41
2022-08-07T01:52:49.309Z,102926.34
2022-08-07T01:55:22.401Z,102931.59
2022-08-07T01:58:06.174Z,102946.34
2022-08-07T02:00:49.353Z,102944.50
2022-08-07T02:03:24.934Z,102941.09
2022-08-07T02:06:00.958Z,102949.81
2022-08-07T02:08:30.953Z,102937.59
2022-08-07T02:10:59.843Z,102937.66
2022-08-07T02:13:57.513Z,102932.44
2022-08-07T02:16:19.991Z,102930.72
2022-08-07T02:18:56.397Z,102928.25
2022-08-07T02:21:24.983Z,102925.69
2022-08-07T02:23:53.457Z,102921.38
2022-08-07T02:26:33.093Z,102921.34
2022-08-07T02:29:06.402Z,102919.56
2022-08-07T02:31:41.245Z,102911.75
2022-08-07T02:34:11.307Z,102916.06
2022-08-07T02:36:45.980Z,102903.00
2022-08-07T02:39:17.545Z,102912.53
2022-08-07T02:42:03.673Z,102902.91
2022-08-07T02:44:45.799Z,102915.06
2022-08-07T02:47:19.453Z,102908.13
2022-08-07T02:49:56.157Z,102913.97
2022-08-07T02:52:38.868Z,102919.72
2022-08-07T02:55:28.549Z,102913.47
2022-08-07T02:58:13.834Z,102922.09
2022-08-07T03:00:46.714Z,102916.13
2022-08-07T03:03:22.664Z,102918.91
2022-08-07T03:05:53.670Z,102913.75
2022-08-07T03:08:26.825Z,102909.44
2022-08-07T03:10:57.725Z,102905.25
2022-08-07T03:13:25.595Z,102914.97
2022-08-07T03:15:56.318Z,102907.25
2022-08-07T03:18:34.892Z,102912.56
2022-08-07T03:21:08.664Z,102897.94
2022-08-07T03:24:20.897Z,102910.19
2022-08-07T03:26:32.087Z,102901.63
2022-08-07T03:29:00.159Z,102905.09
2022-08-07T03:31:43.288Z,102912.16
2022-08-07T03:34:18.794Z,102914.81
2022-08-07T03:36:52.881Z,102906.13
2022-08-07T03:39:46.084Z,102900.16
2022-08-07T03:42:08.569Z,102900.19
2022-08-07T03:44:37.887Z,102897.63
2022-08-07T03:47:10.893Z,102901.09
2022-08-07T03:49:39.576Z,102905.50
2022-08-07T03:52:22.248Z,102888.22
2022-08-07T03:54:55.130Z,102893.44
2022-08-07T03:58:34.820Z,102890.88
2022-08-07T04:00:14.807Z,102891.81
2022-08-07T04:02:47.169Z,102888.34
2022-08-07T04:05:14.637Z,102881.38
2022-08-07T04:07:47.656Z,102876.13
2022-08-07T04:10:19.563Z,102867.41
2022-08-07T04:12:47.396Z,102881.13
2022-08-07T04:15:16.190Z,102871.66
2022-08-07T04:18:57.334Z,102876.84
2022-08-07T04:20:31.840Z,102878.56
2022-08-07T04:23:06.376Z,102871.56
2022-08-07T04:25:39.067Z,102875.84
2022-08-07T04:28:13.373Z,102878.44
2022-08-07T04:30:55.591Z,102878.44
2022-08-07T04:33:26.902Z,102882.84
2022-08-07T04:35:55.283Z,102878.63
2022-08-07T04:38:26.065Z,102883.81
2022-08-07T04:40:56.730Z,102878.53
2022-08-07T04:44:09.922Z,102884.66
2022-08-07T04:46:34.702Z,102879.56
2022-08-07T04:49:18.282Z,102886.59
2022-08-07T04:52:06.554Z,102884.09
2022-08-07T04:54:36.766Z,102873.69
2022-08-07T04:58:15.550Z,102872.84
2022-08-07T05:00:11.269Z,102873.78
2022-08-07T05:03:59.921Z,102879.94
2022-08-07T05:06:19.278Z,102885.19
2022-08-07T05:09:02.462Z,102889.53
2022-08-07T05:11:57.923Z,102886.03
2022-08-07T05:14:52.748Z,102879.13
2022-08-07T05:18:00.374Z,102889.47
2022-08-07T05:20:10.132Z,102891.16
2022-08-07T05:22:39.513Z,102896.31
2022-08-07T05:25:11.560Z,102884.13
2022-08-07T05:28:03.183Z,102891.00
2022-08-07T05:30:42.531Z,102881.47
2022-08-07T05:33:13.086Z,102886.69
2022-08-07T05:35:42.790Z,102890.13
2022-08-07T05:38:11.586Z,102889.19
2022-08-07T05:40:50.650Z,102889.88
2022-08-07T05:43:19.047Z,102890.53
2022-08-07T05:45:48.369Z,102895.44
2022-08-07T05:48:16.589Z,102900.09
2022-08-07T05:50:43.826Z,102902.09
2022-08-07T05:54:12.226Z,102890.97
2022-08-07T05:56:02.962Z,102888.66
2022-08-07T05:58:36.864Z,102898.56
2022-08-07T06:01:10.473Z,102893.44
2022-08-07T06:03:53.392Z,102887.41
2022-08-07T06:06:29.338Z,102898.38
2022-08-07T06:08:57.363Z,102893.84
2022-08-07T06:11:25.584Z,102899.22
2022-08-07T06:14:12.437Z,102895.09
2022-08-07T06:16:44.155Z,102894.78
2022-08-07T06:19:57.552Z,102903.22
2022-08-07T06:22:15.416Z,102905.41
2022-08-07T06:24:57.852Z,102905.47
2022-08-07T06:28:00.137Z,102904.66
2022-08-07T06:30:36.021Z,102897.88
2022-08-07T06:33:00.993Z,102896.34
2022-08-07T06:35:39.081Z,102896.84
2022-08-07T06:38:19.306Z,102901.94
2022-08-07T06:40:51.894Z,102900.00
2022-08-07T06:43:23.768Z,102905.28
2022-08-07T06:45:51.623Z,102906.06
2022-08-07T06:48:24.675Z,102907.72
2022-08-07T06:50:55.081Z,102913.00
2022-08-07T06:55:27.987Z,102906.81
2022-08-07T06:56:15.446Z,102899.47
2022-08-07T07:00:13.058Z,102900.53
2022-08-07T07:01:33.174Z,102897.25
2022-08-07T07:04:32.856Z,102904.50
2022-08-07T07:07:01.711Z,102891.56
2022-08-07T07:09:31.391Z,102895.75
2022-08-07T07:12:19.642Z,102894.06
2022-08-07T07:15:03.816Z,102898.03
2022-08-07T07:18:14.357Z,102897.06
2022-08-07T07:20:46.012Z,102894.66
2022-08-07T07:24:06.609Z,102898.75
2022-08-07T07:26:33.146Z,102900.22
2022-08-07T07:29:56.258Z,102899.19
2022-08-07T07:31:55.618Z,102910.75
2022-08-07T07:34:31.179Z,102900.19
2022-08-07T07:37:14.595Z,102905.34
2022-08-07T07:39:54.799Z,102896.09
2022-08-07T07:42:33.070Z,102901.84
2022-08-07T07:45:05.543Z,102893.09
2022-08-07T07:47:42.890Z,102908.34
2022-08-07T07:50:34.218Z,102894.91
2022-08-07T07:53:13.513Z,102911.28
2022-08-07T07:55:54.861Z,102910.34
2022-08-07T07:58:36.973Z,102895.47
2022-08-07T08:02:02.431Z,102898.31
2022-08-07T08:04:10.705Z,102904.34
2022-08-07T08:06:48.132Z,102897.81
2022-08-07T08:09:22.716Z,102904.00
2022-08-07T08:12:02.577Z,102907.44
2022-08-07T08:14:34.527Z,102912.81
2022-08-07T08:17:56.059Z,102917.25
2022-08-07T08:20:17.399Z,102906.59
2022-08-07T08:23:09.306Z,102911.34
2022-08-07T08:26:03.308Z,102905.31
2022-08-07T08:28:39.190Z,102901.47
2022-08-07T08:31:22.653Z,102898.81
2022-08-07T08:33:55.563Z,102900.44
2022-08-07T08:36:29.769Z,102899.47
2022-08-07T08:39:01.758Z,102895.66
2022-08-07T08:41:59.567Z,102891.00
2022-08-07T08:44:44.501Z,102886.09
2022-08-07T08:47:52.871Z,102894.44
2022-08-07T08:50:34.750Z,102898.00
2022-08-07T08:53:26.536Z,102891.53
2022-08-07T08:56:37.614Z,102883.19
2022-08-07T08:59:25.745Z,102881.69
2022-08-07T09:02:41.870Z,102880.63
2022-08-07T09:05:37.752Z,102881.75
2022-08-07T09:08:29.336Z,102876.16
2022-08-07T09:11:24.237Z,102880.34
2022-08-07T09:14:15.257Z,102879.13
2022-08-07T09:16:47.990Z,102877.56
2022-08-07T09:19:52.704Z,102874.75
2022-08-07T09:24:28.983Z,102869.44
2022-08-07T09:25:34.119Z,102879.19
2022-08-07T09:30:00.452Z,102873.53
2022-08-07T09:31:24.854Z,102869.88
2022-08-07T09:34:10.114Z,102866.53
2022-08-07T09:37:03.336Z,102873.16
2022-08-07T09:39:54.353Z,102869.19
2022-08-07T09:42:39.266Z,102873.75
2022-08-07T09:47:23.434Z,102873.59
2022-08-07T09:48:15.106Z,102868.44
2022-08-07T09:51:04.463Z,102883.97
2022-08-07T09:53:48.906Z,102869.41
2022-08-07T09:56:34.086Z,102869.03
2022-08-07T09:59:44.642Z,102869.09
2022-08-07T10:02:55.106Z,102879.13
2022-08-07T10:05:59.593Z,102876.09
2022-08-07T10:08:44.409Z,102871.59
2022-08-07T10:12:02.067Z,102870.59
2022-08-07T10:14:30.301Z,102867.66
2022-08-07T10:17:25.007Z,102866.56
2022-08-07T10:20:00.966Z,102873.03
2022-08-07T10:22:54.840Z,102867.91
2022-08-07T10:25:43.700Z,102872.78
2022-08-07T10:28:36.040Z,102861.06
2022-08-07T10:31:38.970Z,102872.88
2022-08-07T10:34:27.032Z,102874.09
2022-08-07T10:37:05.756Z,102868.56
2022-08-07T10:40:03.271Z,102860.84
2022-08-07T10:43:13.872Z,102868.66
2022-08-07T10:45:58.021Z,102871.31
2022-08-07T10:48:35.226Z,102868.88
2022-08-07T10:51:39.457Z,102868.78
2022-08-07T10:54:41.128Z,102864.44
2022-08-07T10:57:34.141Z,102864.41
2022-08-07T11:00:05.173Z,102862.19
2022-08-07T11:02:49.104Z,102859.69
2022-08-07T11:05:48.902Z,102862.16
2022-08-07T11:08:46.746Z,102855.06
2022-08-07T11:11:27.935Z,102861.66
2022-08-07T11:14:57.067Z,102854.50
2022-08-07T11:17:45.577Z,102852.53
2022-08-07T11:20:25.892Z,102848.38
2022-08-07T11:23:30.696Z,102838.28
2022-08-07T11:26:17.852Z,102844.03
2022-08-07T11:28:55.607Z,102844.00
2022-08-07T11:31:35.073Z,102844.22
2022-08-07T11:34:16.313Z,102831.31
2022-08-07T11:37:02.968Z,102840.50
2022-08-07T11:39:58.981Z,102833.31
2022-08-07T11:43:02.553Z,102825.53
2022-08-07T11:46:09.372Z,102830.22
2022-08-07T11:49:50.439Z,102825.47
2022-08-07T11:52:29.366Z,102831.31
2022-08-07T11:55:02.479Z,102828.69
2022-08-07T11:58:21.191Z,102817.19
2022-08-07T12:01:22.061Z,102817.88
2022-08-07T12:03:58.709Z,102814.97
2022-08-07T12:07:00.423Z,102810.84
2022-08-07T12:09:36.465Z,102803.09
2022-08-07T12:12:13.763Z,102801.63
2022-08-07T12:15:02.096Z,102810.44
2022-08-07T12:17:59.774Z,102800.25
2022-08-07T12:20:49.104Z,102807.31
2022-08-07T12:23:37.311Z,102813.28
2022-08-07T12:26:23.461Z,102806.13
2022-08-07T12:28:59.135Z,102802.53
2022-08-07T12:31:52.371Z,102806.13
2022-08-07T12:34:26.682Z,102803.66
2022-08-07T12:36:56.614Z,102801.22
2022-08-07T12:39:43.051Z,102797.53
2022-08-07T12:42:13.561Z,102799.25
2022-08-07T12:44:46.696Z,102793.38
2022-08-07T12:47:39.855Z,102803.44
2022-08-07T12:50:40.197Z,102801.06
2022-08-07T12:54:03.321Z,102800.28
2022-08-07T12:56:41.558Z,102786.59
2022-08-07T12:59:20.833Z,102797.81
2022-08-07T13:02:03.350Z,102796.09
2022-08-07T13:05:10.325Z,102799.66
2022-08-07T13:08:14.442Z,102790.47
2022-08-07T13:11:02.122Z,102783.06
2022-08-07T13:13:51.971Z,102782.47
2022-08-07T13:17:02.670Z,102786.03
2022-08-07T13:19:50.987Z,102779.06
2022-08-07T13:22:33.164Z,102778.34
2022-08-07T13:25:15.232Z,102775.25
2022-08-07T13:28:11.676Z,102773.09
2022-08-07T13:30:48.991Z,102772.88
2022-08-07T13:34:30.462Z,102776.97
2022-08-07T13:36:30.981Z,102771.25
2022-08-07T13:39:05.013Z,102769.34
2022-08-07T13:41:47.463Z,102767.72
2022-08-07T13:44:26.120Z,102765.06
2022-08-07T13:46:59.502Z,102763.22
2022-08-07T13:50:35.818Z,102763.94
2022-08-07T13:52:31.655Z,102753.97
2022-08-07T13:55:07.446Z,102759.91
2022-08-07T13:57:59.287Z,102757.84
2022-08-07T14:00:39.609Z,102751.91
2022-08-07T14:03:29.529Z,102770.13
2022-08-07T14:06:12.889Z,102756.72
2022-08-07T14:08:54.564Z,102760.56
2022-08-07T14:11:23.529Z,102766.88
2022-08-07T14:13:58.261Z,102752.47
2022-08-07T14:16:31.916Z,102753.63
2022-08-07T14:19:01.624Z,102752.88
2022-08-07T14:22:03.013Z,102763.91
2022-08-07T14:24:34.213Z,102752.00
2022-08-07T14:28:09.662Z,102750.34
2022-08-07T14:30:07.762Z,102754.78
2022-08-07T14:32:47.480Z,102744.63
2022-08-07T14:35:43.329Z,102738.09
2022-08-07T14:38:26.552Z,102729.50
2022-08-07T14:41:03.892Z,102739.22
2022-08-07T14:49:55.670Z,102731.03
2022-08-07T14:52:03.730Z,102729.78
2022-08-07T14:54:49.782Z,102737.81
2022-08-07T14:57:25.398Z,102727.72
2022-08-07T15:00:13.005Z,102731.41
2022-08-07T15:03:00.296Z,102729.56
2022-08-07T15:05:54.799Z,102729.00
2022-08-07T15:08:54.720Z,102719.47
2022-08-07T15:11:52.886Z,102724.47
2022-08-07T15:14:22.415Z,102725.59
2022-08-07T15:20:33.927Z,102714.78
2022-08-07T15:22:53.554Z,102710.69
2022-08-07T15:28:34.885Z,102710.81
2022-08-07T15:31:12.297Z,102703.84
2022-08-07T15:34:00.960Z,102708.56
2022-08-07T15:37:03.827Z,102700.84
2022-08-07T15:39:16.893Z,102702.81
2022-08-07T15:42:43.798Z,102699.28
2022-08-07T15:44:51.672Z,102696.25
2022-08-07T15:47:21.677Z,102696.91
2022-08-07T15:53:13.835Z,102694.34
2022-08-07T15:55:53.405Z,102697.03
2022-08-07T15:58:52.170Z,102691.66
2022-08-07T16:01:38.662Z,102686.97
2022-08-07T16:04:14.548Z,102691.16
2022-08-07T16:06:59.448Z,102686.25
2022-08-07T16:09:41.897Z,102684.97
2022-08-07T16:12:39.141Z,102685.72
2022-08-07T16:15:57.335Z,102674.00
2022-08-07T16:18:49.534Z,102674.66
2022-08-07T16:22:02.116Z,102670.16
2022-08-07T16:24:37.639Z,102666.50
2022-08-07T16:27:23.786Z,102673.47
2022-08-07T16:30:30.511Z,102670.09
2022-08-07T16:34:02.931Z,102672.19
2022-08-07T16:36:31.316Z,102666.91
2022-08-07T16:39:04.814Z,102671.63
2022-08-07T16:41:54.043Z,102662.97
2022-08-07T16:45:14.373Z,102677.75
2022-08-07T16:47:56.490Z,102669.22
2022-08-07T16:50:52.561Z,102667.44
2022-08-07T16:54:06.463Z,102669.53
2022-08-07T16:56:54.315Z,102672.66
2022-08-07T16:59:47.157Z,102673.97
2022-08-07T17:02:51.206Z,102661.97
2022-08-07T17:06:19.669Z,102665.66
2022-08-07T17:09:08.651Z,102660.88
2022-08-07T17:12:03.980Z,102660.09
2022-08-07T17:14:36.459Z,102656.38
2022-08-07T17:17:14.250Z,102659.78
2022-08-07T17:20:01.605Z,102664.81
2022-08-07T17:22:38.624Z,102667.53
2022-08-07T17:25:47.458Z,102666.06
2022-08-07T17:28:49.675Z,102667.31
2022-08-07T17:31:23.306Z,102668.28
2022-08-07T17:34:15.114Z,102657.28
2022-08-07T17:36:59.962Z,102671.97
2022-08-07T17:39:57.655Z,102662.81
2022-08-07T17:42:59.371Z,102675.00
2022-08-07T17:45:38.416Z,102674.66
2022-08-07T17:48:30.782Z,102674.03
2022-08-07T17:51:59.882Z,102667.47
2022-08-07T17:54:53.252Z,102673.25
2022-08-07T17:57:58.711Z,102669.06
2022-08-07T18:00:34.260Z,102667.63
2022-08-07T18:03:10.585Z,102675.28
2022-08-07T18:06:09.408Z,102672.88
2022-08-07T18:09:01.993Z,102662.06
2022-08-07T18:12:16.506Z,102680.56
2022-08-07T18:14:46.101Z,102669.81
2022-08-07T18:18:46.910Z,102677.13
2022-08-07T18:21:40.130Z,102675.31
2022-08-07T18:24:06.875Z,102669.38
2022-08-07T18:27:01.586Z,102668.59
2022-08-07T18:30:08.031Z,102677.25
2022-08-07T18:33:10.756Z,102682.44
2022-08-07T18:35:51.452Z,102682.34
2022-08-07T18:38:58.988Z,102684.66
2022-08-07T18:41:55.497Z,102685.06
2022-08-07T18:44:27.080Z,102678.69
2022-08-07T18:47:10.421Z,102676.56
2022-08-07T18:50:39.315Z,102677.38
2022-08-07T18:53:40.209Z,102687.00
2022-08-07T18:56:13.402Z,102684.22
2022-08-07T18:59:47.086Z,102691.06
2022-08-07T19:02:45.520Z,102693.56
2022-08-07T19:05:25.928Z,102694.16
2022-08-07T19:08:21.764Z,102698.28
2022-08-07T19:10:59.618Z,102694.31
2022-08-07T19:13:37.418Z,102693.44
2022-08-07T19:17:01.215Z,102693.75
2022-08-07T19:19:28.029Z,102698.50
2022-08-07T19:22:08.396Z,102695.63
2022-08-07T19:24:48.040Z,102701.34
2022-08-07T19:29:02.950Z,102699.81
2022-08-07T19:31:03.916Z,102707.50
2022-08-07T19:33:13.435Z,102709.00
2022-08-07T19:35:46.696Z,102708.31
2022-08-07T19:38:17.829Z,102705.44
2022-08-07T19:40:50.555Z,102702.66
2022-08-07T19:43:49.184Z,102698.56
2022-08-07T19:46:29.060Z,102709.09
2022-08-07T19:49:07.631Z,102699.28
2022-08-07T19:51:52.229Z,102704.06
2022-08-07T19:54:32.370Z,102716.81
2022-08-07T19:58:00.891Z,102723.00
2022-08-07T19:59:58.420Z,102716.47
2022-08-07T20:02:31.633Z,102716.63
2022-08-07T20:05:03.636Z,102724.34
2022-08-07T20:07:46.056Z,102724.19
2022-08-07T20:10:35.353Z,102723.13
2022-08-07T20:13:41.859Z,102722.47
2022-08-07T20:16:32.127Z,102737.34
2022-08-07T20:19:00.195Z,102736.44
2022-08-07T20:21:42.119Z,102744.03
2022-08-07T20:24:28.438Z,102750.41
2022-08-07T20:26:59.161Z,102749.94
2022-08-07T20:29:47.722Z,102756.59
2022-08-07T20:32:39.744Z,102757.16
2022-08-07T20:35:22.008Z,102760.34
2022-08-07T20:37:59.299Z,102765.31
2022-08-07T20:40:32.591Z,102769.31
2022-08-07T20:43:03.317Z,102762.91
2022-08-07T20:46:27.450Z,102764.31
2022-08-07T20:48:28.576Z,102759.66
2022-08-07T20:51:00.320Z,102758.50
2022-08-07T20:54:04.369Z,102753.75
2022-08-07T20:56:16.869Z,102760.38
2022-08-07T20:58:55.745Z,102767.94
2022-08-07T21:01:29.764Z,102761.38
2022-08-07T21:04:21.732Z,102762.63
2022-08-07T21:06:55.128Z,102769.16
2022-08-07T21:09:29.249Z,102770.38
2022-08-07T21:12:14.936Z,102779.28
2022-08-07T21:14:48.507Z,102784.13
2022-08-07T21:18:02.710Z,102786.16
2022-08-07T21:20:26.451Z,102777.00
2022-08-07T21:22:57.515Z,102789.44
2022-08-07T21:25:56.872Z,102793.13
2022-08-07T21:28:49.938Z,102787.41
2022-08-07T21:32:42.673Z,102788.50
2022-08-07T21:34:48.693Z,102782.13
2022-08-07T21:37:24.010Z,102768.66
2022-08-07T21:39:59.897Z,102779.34
2022-08-07T21:42:42.376Z,102779.69
2022-08-07T21:46:08.559Z,102782.69
2022-08-07T21:48:28.768Z,102788.16
2022-08-07T21:51:08.184Z,102773.78
2022-08-07T21:53:52.924Z,102781.06
2022-08-07T21:56:51.936Z,102789.00
2022-08-07T21:59:36.344Z,102795.47
2022-08-07T22:02:30.910Z,102800.19
2022-08-07T22:05:00.398Z,102790.81
2022-08-07T22:07:31.437Z,102798.88
2022-08-07T22:10:12.167Z,102803.28
2022-08-07T22:12:53.140Z,102804.22
2022-08-07T22:16:38.450Z,102802.53
2022-08-07T22:18:37.404Z,102800.06
2022-08-07T22:22:04.297Z,102803.75
2022-08-07T22:24:19.989Z,102804.00
2022-08-07T22:26:55.486Z,102802.47
2022-08-07T22:29:47.434Z,102806.81
2022-08-07T22:32:38.053Z,102806.06
2022-08-07T22:35:11.051Z,102810.56
2022-08-07T22:38:05.441Z,102804.50
2022-08-07T22:41:10.268Z,102815.00
2022-08-07T22:43:43.638Z,102819.66
2022-08-07T22:47:02.462Z,102823.31
2022-08-07T22:49:16.449Z,102814.75
2022-08-07T22:51:57.546Z,102820.22
2022-08-07T22:54:49.063Z,102818.44
2022-08-07T22:57:34.256Z,102828.22
2022-08-07T23:00:44.035Z,102823.09
2022-08-07T23:03:18.140Z,102819.88
2022-08-07T23:06:18.386Z,102820.84
2022-08-07T23:10:06.381Z,102831.63
2022-08-07T23:11:49.479Z,102828.28
2022-08-07T23:14:41.114Z,102824.09
2022-08-07T23:17:26.395Z,102819.94
2022-08-07T23:20:51.633Z,102818.19
2022-08-07T23:24:06.085Z,102817.47
2022-08-07T23:26:26.262Z,102818.63
2022-08-07T23:30:36.111Z,102811.84
2022-08-07T23:34:18.848Z,102812.06
2022-08-07T23:35:27.434Z,102805.38
2022-08-07T23:38:42.789Z,102805.63
2022-08-07T23:42:01.731Z,102812.75
2022-08-07T23:44:52.995Z,102802.34
2022-08-07T23:47:48.001Z,102812.84
2022-08-07T23:50:24.236Z,102812.97
2022-08-07T23:53:17.190Z,102817.53
2022-08-07T23:56:01.931Z,102810.75
2022-08-07T23:58:45.239Z,102816.16
